Time;durP1;ratioP1;P1;durP2;ratioP2;P2;SDS_P1;SDS_P2;PMS_P1;PMS_P2;Temp;Humidity;BMP_temperature;BMP_pressure;BME280_temperature;BME280_humidity;BME280_pressure;Samples;Min_cycle;Max_cycle;Signal;HPM_P1;HPM_P2
2023/12/19 00:02:03;;;;;;;85.10;40.73;;;;;;;-142.91;100.00;56616.03;5082043;28;20200;-76
2023/12/19 00:04:33;;;;;;;91.97;42.10;;;;;;;;;;5081246;28;20709;-75
2023/12/19 00:06:59;;;;;;;96.55;43.40;;;;;;;-142.91;100.00;56616.03;5081874;28;20197;-77
2023/12/19 00:09:27;;;;;;;93.10;45.88;;;;;;;-142.91;100.00;56616.03;5081233;28;20296;-75
2023/12/19 00:11:54;;;;;;;95.20;44.67;;;;;;;-142.91;100.00;56616.03;5081874;28;20230;-74
2023/12/19 00:14:21;;;;;;;101.13;49.83;;;;;;;-142.91;100.00;56616.03;5078784;28;20226;-76
2023/12/19 00:16:47;;;;;;;116.65;51.92;;;;;;;-142.91;100.00;56616.03;5082947;28;20392;-75
2023/12/19 00:19:14;;;;;;;117.97;54.20;;;;;;;-142.91;100.00;56616.03;5083822;28;20818;-75
2023/12/19 00:21:41;;;;;;;105.37;49.17;;;;;;;-142.91;100.00;56616.03;5079665;28;20290;-76
2023/12/19 00:24:08;;;;;;;98.82;48.25;;;;;;;-142.91;100.00;56616.03;5081910;28;20229;-74
2023/12/19 00:26:36;;;;;;;92.10;44.47;;;;;;;-142.91;100.00;56616.03;5080597;28;20289;-74
2023/12/19 00:29:02;;;;;;;96.72;47.30;;;;;;;-142.91;100.00;56616.03;5079628;28;20220;-76
2023/12/19 00:31:29;;;;;;;102.13;49.80;;;;;;;-142.91;100.00;56616.03;5078730;28;20317;-73
2023/12/19 00:33:56;;;;;;;93.63;46.55;;;;;;;-142.91;100.00;56616.03;5083145;28;20227;-76
2023/12/19 00:36:23;;;;;;;93.82;46.38;;;;;;;-142.91;100.00;56616.03;5081404;28;20289;-73
2023/12/19 00:38:50;;;;;;;96.55;45.38;;;;;;;;;;5086420;28;20232;-74
2023/12/19 00:41:17;;;;;;;83.53;41.75;;;;;;;;;;5081927;28;20286;-76
2023/12/19 00:43:45;;;;;;;79.85;38.97;;;;;;;-142.91;100.00;56616.03;5080752;28;20271;-77
2023/12/19 00:46:12;;;;;;;80.65;38.30;;;;;;;-142.91;100.00;56616.03;5085623;28;20281;-76
2023/12/19 00:48:39;;;;;;;75.07;36.85;;;;;;;-142.91;100.00;56616.03;5081657;28;20263;-76
2023/12/19 00:51:09;;;;;;;67.75;37.13;;;;;;;;;;5083244;28;20292;-75
2023/12/19 00:53:35;;;;;;;69.97;35.42;;;;;;;-142.91;100.00;56616.03;5081512;28;20678;-77
2023/12/19 00:56:01;;;;;;;67.30;34.83;;;;;;;-142.91;100.00;56616.03;5085371;28;20279;-76
2023/12/19 00:58:28;;;;;;;60.88;32.88;;;;;;;-142.91;100.00;56616.03;5083105;28;20229;-75
2023/12/19 01:00:56;;;;;;;62.53;32.13;;;;;;;-142.91;100.00;56616.03;5083385;28;20288;-76
2023/12/19 01:03:23;;;;;;;56.15;29.98;;;;;;;-142.91;100.00;56616.03;5077227;28;20213;-76
2023/12/19 01:05:50;;;;;;;55.77;30.83;;;;;;;-142.91;100.00;56616.03;5077901;28;20779;-77
2023/12/19 01:08:17;;;;;;;54.17;28.70;;;;;;;-142.91;100.00;56616.03;5080733;28;20276;-76
2023/12/19 01:10:44;;;;;;;60.65;29.05;;;;;;;-142.91;100.00;56616.03;5081969;28;20197;-76
2023/12/19 01:13:10;;;;;;;50.17;27.88;;;;;;;-142.91;100.00;56616.03;5078534;28;20225;-76
2023/12/19 01:15:37;;;;;;;47.03;25.70;;;;;;;-142.91;100.00;56616.03;5079726;28;20289;-76
2023/12/19 01:18:06;;;;;;;51.88;25.58;;;;;;;-142.91;100.00;56616.03;5081834;28;20201;-76
2023/12/19 01:20:32;;;;;;;47.83;25.83;;;;;;;-142.91;100.00;56616.03;5083070;28;20784;-76
2023/12/19 01:22:59;;;;;;;54.72;25.58;;;;;;;-142.91;100.00;56616.03;5076879;28;20267;-75
2023/12/19 01:25:25;;;;;;;49.03;26.25;;;;;;;;;;5081818;28;20312;-76
2023/12/19 01:27:52;;;;;;;51.90;26.98;;;;;;;-142.91;100.00;56616.03;5078244;28;20205;-76
2023/12/19 01:30:19;;;;;;;47.17;26.40;;;;;;;-142.91;100.00;56616.03;5077881;28;20614;-79
2023/12/19 01:32:46;;;;;;;44.60;26.02;;;;;;;-142.91;100.00;56616.03;5081660;28;20226;-77
2023/12/19 01:35:14;;;;;;;52.85;26.88;;;;;;;-142.91;100.00;56616.03;5080857;28;20199;-75
2023/12/19 01:37:40;;;;;;;47.63;24.70;;;;;;;;;;5079361;28;20241;-74
2023/12/19 01:40:08;;;;;;;45.70;24.60;;;;;;;-142.91;100.00;56616.03;5078423;28;20263;-76
2023/12/19 01:42:35;;;;;;;45.37;24.90;;;;;;;-142.91;100.00;56616.03;5084751;28;20316;-75
2023/12/19 01:45:08;;;;;;;42.28;22.83;;;;;;;;;;5082297;28;20779;-76
2023/12/19 01:47:35;;;;;;;41.77;20.57;;;;;;;-142.91;100.00;56616.03;5082217;28;20201;-75
2023/12/19 01:50:01;;;;;;;42.83;19.80;;;;;;;-142.91;100.00;56616.03;5085300;28;20198;-75
2023/12/19 01:52:30;;;;;;;42.97;21.55;;;;;;;-142.91;100.00;56616.03;5084830;28;20270;-76
2023/12/19 01:54:58;;;;;;;38.42;23.08;;;;;;;-142.91;100.00;56616.03;5084569;28;20865;-77
2023/12/19 01:57:25;;;;;;;47.38;24.77;;;;;;;-142.91;100.00;56616.03;5082207;28;20566;-77
2023/12/19 01:59:52;;;;;;;39.97;22.40;;;;;;;-142.91;100.00;56616.03;5086243;28;20746;-76
2023/12/19 02:02:19;;;;;;;41.33;22.63;;;;;;;-142.91;100.00;56616.03;5085047;28;20288;-75
2023/12/19 02:04:45;;;;;;;41.55;22.45;;;;;;;;;;5082114;28;20317;-76
2023/12/19 02:07:12;;;;;;;37.77;20.47;;;;;;;-142.91;100.00;56616.03;5075859;28;20289;-76
2023/12/19 02:09:40;;;;;;;37.42;19.33;;;;;;;-142.91;100.00;56616.03;5080992;28;20288;-77
2023/12/19 02:12:08;;;;;;;37.17;18.13;;;;;;;-142.91;100.00;56616.03;5082618;28;20281;-75
2023/12/19 02:14:34;;;;;;;36.28;19.00;;;;;;;-142.91;100.00;56616.03;5085146;28;20269;-76
2023/12/19 02:17:02;;;;;;;39.33;18.33;;;;;;;-142.91;100.00;56616.03;5080593;28;20268;-75
2023/12/19 02:19:29;;;;;;;30.88;18.20;;;;;;;-142.91;100.00;56616.03;5081535;28;20609;-73
2023/12/19 02:21:56;;;;;;;33.53;19.00;;;;;;;-142.91;100.00;56616.03;5082189;28;20218;-76
2023/12/19 02:24:24;;;;;;;35.35;18.23;;;;;;;-142.91;100.00;56616.03;5083304;28;20656;-77
2023/12/19 02:26:51;;;;;;;41.30;18.60;;;;;;;;;;5085107;28;20218;-76
2023/12/19 02:29:17;;;;;;;30.77;18.45;;;;;;;-142.91;100.00;56616.03;5089915;28;20236;-75
2023/12/19 02:31:44;;;;;;;33.47;18.67;;;;;;;-142.91;100.00;56616.03;5087173;28;20312;-76
2023/12/19 02:34:11;;;;;;;36.85;20.23;;;;;;;-142.91;100.00;56616.03;5084197;28;20202;-74
2023/12/19 02:36:38;;;;;;;34.95;19.92;;;;;;;-142.91;100.00;56616.03;5085831;28;20217;-74
2023/12/19 02:39:04;;;;;;;36.60;20.10;;;;;;;-142.91;100.00;56616.03;5089503;28;20683;-74
2023/12/19 02:41:32;;;;;;;45.35;21.52;;;;;;;-142.91;100.00;56616.03;5086106;28;20313;-75
2023/12/19 02:43:59;;;;;;;39.38;21.25;;;;;;;-142.91;100.00;56616.03;5081943;28;20222;-75
2023/12/19 02:46:25;;;;;;;36.58;21.25;;;;;;;-142.91;100.00;56616.03;5077857;28;20465;-75
2023/12/19 02:48:52;;;;;;;43.53;21.70;;;;;;;;;;5078087;28;20294;-75
2023/12/19 02:51:20;;;;;;;37.13;21.25;;;;;;;-142.91;100.00;56616.03;5080531;28;20297;-75
2023/12/19 02:53:46;;;;;;;43.30;22.17;;;;;;;-142.91;100.00;56616.03;5086715;28;20225;-74
2023/12/19 02:56:13;;;;;;;37.92;20.75;;;;;;;-142.91;100.00;56616.03;5087071;28;20244;-74
2023/12/19 02:58:42;;;;;;;45.05;22.90;;;;;;;-142.91;100.00;56616.03;5087025;28;20201;-73
2023/12/19 03:01:08;;;;;;;42.17;22.50;;;;;;;-142.91;100.00;56616.03;5086554;28;20275;-74
2023/12/19 03:03:35;;;;;;;39.53;23.47;;;;;;;-142.91;100.00;56616.03;5083224;28;20676;-73
2023/12/19 03:06:02;;;;;;;41.10;21.90;;;;;;;-142.91;100.00;56616.03;5083294;28;20301;-76
2023/12/19 03:08:29;;;;;;;42.28;21.48;;;;;;;-142.91;100.00;56616.03;5082263;28;20245;-76
2023/12/19 03:10:56;;;;;;;43.03;22.20;;;;;;;-142.91;100.00;56616.03;5083312;28;20881;-76
2023/12/19 03:13:22;;;;;;;40.13;21.35;;;;;;;-142.91;100.00;56616.03;5081351;28;20260;-74
2023/12/19 03:15:50;;;;;;;45.75;21.05;;;;;;;-142.91;100.00;56616.03;5086942;28;20659;-74
2023/12/19 03:18:23;;;;;;;38.67;22.58;;;;;;;-142.91;100.00;56616.03;5088020;28;20225;-74
2023/12/19 03:20:51;;;;;;;47.77;24.10;;;;;;;-142.91;100.00;56616.03;5082665;28;20228;-75
2023/12/19 03:23:18;;;;;;;46.63;23.27;;;;;;;-142.91;100.00;56616.03;5084336;28;20233;-74
2023/12/19 03:25:45;;;;;;;44.60;23.65;;;;;;;-142.91;100.00;56616.03;5086702;28;20287;-75
2023/12/19 03:28:12;;;;;;;43.50;22.88;;;;;;;-142.91;100.00;56616.03;5086466;28;20237;-75
2023/12/19 03:30:38;;;;;;;42.17;23.13;;;;;;;-142.91;100.00;56616.03;5081354;28;20240;-75
2023/12/19 03:33:06;;;;;;;53.05;24.60;;;;;;;-142.91;100.00;56616.03;5087674;28;20272;-75
2023/12/19 03:35:33;;;;;;;60.83;27.65;;;;;;;-142.91;100.00;56616.03;5084260;28;20222;-74
2023/12/19 03:38:01;;;;;;;50.43;26.33;;;;;;;-142.91;100.00;56616.03;5084828;28;20205;-74
2023/12/19 03:40:28;;;;;;;62.23;26.80;;;;;;;-142.91;100.00;56616.03;5081430;28;20206;-74
2023/12/19 03:42:54;;;;;;;60.10;28.92;;;;;;;-142.91;100.00;56616.03;5083914;28;20221;-74
2023/12/19 03:45:21;;;;;;;59.73;29.07;;;;;;;;;;5083651;28;20681;-74
2023/12/19 03:47:48;;;;;;;64.05;28.88;;;;;;;-142.91;100.00;56616.03;5081836;28;20679;-74
2023/12/19 03:50:16;;;;;;;65.93;30.15;;;;;;;-142.91;100.00;56616.03;5082232;28;20285;-73
2023/12/19 03:52:42;;;;;;;58.47;28.20;;;;;;;-142.91;100.00;56616.03;5079570;28;20271;-74
2023/12/19 03:55:09;;;;;;;61.83;27.75;;;;;;;-142.91;100.00;56616.03;5079507;28;20295;-73
2023/12/19 03:57:36;;;;;;;62.40;29.05;;;;;;;-142.91;100.00;56616.03;5082397;28;20197;-74
2023/12/19 04:00:05;;;;;;;55.03;27.57;;;;;;;-142.91;100.00;56616.03;5076999;28;20229;-74
2023/12/19 04:02:31;;;;;;;59.50;28.47;;;;;;;-142.91;100.00;56616.03;5077507;28;20229;-73
2023/12/19 04:04:58;;;;;;;70.47;27.53;;;;;;;-142.91;100.00;56616.03;5078799;28;20328;-74
2023/12/19 04:07:26;;;;;;;63.10;28.42;;;;;;;-142.91;100.00;56616.03;5077920;28;20221;-74
2023/12/19 04:09:52;;;;;;;85.30;28.60;;;;;;;-142.91;100.00;56616.03;5079981;28;20293;-74
2023/12/19 04:12:19;;;;;;;76.18;28.92;;;;;;;-142.91;100.00;56616.03;5078648;28;20706;-75
2023/12/19 04:14:46;;;;;;;107.30;32.40;;;;;;;-142.91;100.00;56616.03;5077778;28;20954;-75
2023/12/19 04:17:13;;;;;;;91.20;31.53;;;;;;;-142.91;100.00;56616.03;5083890;28;20233;-76
2023/12/19 04:19:41;;;;;;;76.57;30.53;;;;;;;-142.91;100.00;56616.03;5087052;28;20210;-74
2023/12/19 04:22:08;;;;;;;83.93;31.55;;;;;;;-142.91;100.00;56616.03;5079493;28;20233;-75
2023/12/19 04:24:36;;;;;;;65.13;30.37;;;;;;;-142.91;100.00;56616.03;5079251;28;20286;-74
2023/12/19 04:27:02;;;;;;;78.45;31.65;;;;;;;-142.91;100.00;56616.03;5085878;28;20254;-75
2023/12/19 04:29:29;;;;;;;93.50;27.95;;;;;;;-142.91;100.00;56616.03;5084800;28;20288;-74
2023/12/19 04:31:56;;;;;;;60.67;26.60;;;;;;;-142.91;100.00;56616.03;5079496;28;20229;-74
2023/12/19 04:34:23;;;;;;;77.67;31.10;;;;;;;-142.91;100.00;56616.03;5079233;28;20197;-74
2023/12/19 04:36:49;;;;;;;64.30;28.10;;;;;;;-142.91;100.00;56616.03;5075595;28;20194;-74
2023/12/19 04:39:16;;;;;;;84.47;29.70;;;;;;;-142.91;100.00;56616.03;5077886;28;20292;-74
2023/12/19 04:41:44;;;;;;;63.03;27.90;;;;;;;-142.91;100.00;56616.03;5077125;28;20260;-74
2023/12/19 04:44:11;;;;;;;63.30;28.40;;;;;;;-142.91;100.00;56616.03;5077482;28;20730;-74
2023/12/19 04:46:37;;;;;;;69.72;29.95;;;;;;;-142.91;100.00;56616.03;5081595;28;20221;-75
2023/12/19 04:49:04;;;;;;;59.50;29.70;;;;;;;-142.91;100.00;56616.03;5084570;28;20198;-74
2023/12/19 04:51:31;;;;;;;76.45;30.42;;;;;;;-142.91;100.00;56616.03;5084488;28;20315;-74
2023/12/19 04:53:59;;;;;;;70.75;32.42;;;;;;;-142.91;100.00;56616.03;5084283;28;20280;-74
2023/12/19 04:56:26;;;;;;;77.28;32.03;;;;;;;-142.91;100.00;56616.03;5086236;28;20201;-76
2023/12/19 04:58:55;;;;;;;66.83;31.53;;;;;;;-142.91;100.00;56616.03;5090395;28;20221;-75
2023/12/19 05:01:22;;;;;;;75.80;30.73;;;;;;;-142.91;100.00;56616.03;5086504;28;20229;-76
2023/12/19 05:03:48;;;;;;;64.80;31.55;;;;;;;-142.91;100.00;56616.03;5084871;28;20746;-74
2023/12/19 05:06:17;;;;;;;68.90;31.95;;;;;;;-142.91;100.00;56616.03;5085108;28;20317;-74
2023/12/19 05:08:45;;;;;;;68.95;31.88;;;;;;;-142.91;100.00;56616.03;5084210;28;20215;-74
2023/12/19 05:11:11;;;;;;;63.42;31.20;;;;;;;-142.91;100.00;56616.03;5085283;28;20577;-75
2023/12/19 05:13:38;;;;;;;68.00;30.23;;;;;;;-142.91;100.00;56616.03;5088830;28;20259;-76
2023/12/19 05:16:12;;;;;;;67.00;31.17;;;;;;;-142.91;100.00;56616.03;5087366;28;20229;-75
2023/12/19 05:18:40;;;;;;;74.57;33.28;;;;;;;-142.91;100.00;56616.03;5089503;28;20240;-76
2023/12/19 05:21:07;;;;;;;71.18;28.48;;;;;;;-142.91;100.00;56616.03;5084260;28;20201;-78
2023/12/19 05:23:35;;;;;;;67.10;30.60;;;;;;;-142.91;100.00;56616.03;5088546;28;20232;-74
2023/12/19 05:26:01;;;;;;;64.25;29.70;;;;;;;-142.91;100.00;56616.03;5087430;28;20316;-75
2023/12/19 05:28:28;;;;;;;67.45;27.33;;;;;;;-142.91;100.00;56616.03;5083866;28;20752;-74
2023/12/19 05:30:56;;;;;;;69.30;29.67;;;;;;;-142.91;100.00;56616.03;5088870;28;20292;-74
2023/12/19 05:33:25;;;;;;;60.22;28.67;;;;;;;-142.91;100.00;56616.03;5087455;28;20213;-76
2023/12/19 05:35:51;;;;;;;59.38;28.67;;;;;;;-142.91;100.00;56616.03;5088573;28;20201;-75
2023/12/19 05:38:18;;;;;;;67.68;29.80;;;;;;;;;;5090335;28;20200;-75
2023/12/19 05:40:44;;;;;;;60.87;30.83;;;;;;;;;;5084925;28;20320;-74
2023/12/19 05:43:11;;;;;;;68.00;28.65;;;;;;;-142.91;100.00;56616.03;5083464;28;20229;-75
2023/12/19 05:45:38;;;;;;;65.45;32.53;;;;;;;-142.91;100.00;56616.03;5085006;28;20258;-76
2023/12/19 05:48:05;;;;;;;68.60;31.92;;;;;;;-142.91;100.00;56616.03;5087366;28;20668;-75
2023/12/19 05:50:33;;;;;;;65.03;31.35;;;;;;;-142.91;100.00;56616.03;5086452;28;20202;-74
2023/12/19 05:53:00;;;;;;;81.90;35.00;;;;;;;-142.91;100.00;56616.03;5084216;28;20236;-74
2023/12/19 05:55:27;;;;;;;60.72;28.85;;;;;;;-142.91;100.00;56616.03;5081395;28;20198;-74
2023/12/19 05:57:54;;;;;;;70.50;35.42;;;;;;;-142.91;100.00;56616.03;5084029;28;20670;-74
2023/12/19 06:00:21;;;;;;;63.28;30.77;;;;;;;-142.91;100.00;56616.03;5083168;28;20202;-76
2023/12/19 06:02:49;;;;;;;52.30;28.45;;;;;;;-142.91;100.00;56616.03;5085994;28;20649;-75
2023/12/19 06:05:16;;;;;;;59.83;29.33;;;;;;;-142.91;100.00;56616.03;5086548;28;20691;-75
2023/12/19 06:07:44;;;;;;;65.63;27.98;;;;;;;-142.91;100.00;56616.03;5090655;28;20306;-76
2023/12/19 06:10:12;;;;;;;82.07;37.15;;;;;;;-142.91;100.00;56616.03;5086781;28;20285;-75
2023/12/19 06:12:39;;;;;;;71.15;32.90;;;;;;;-142.91;100.00;56616.03;5088873;28;20309;-74
2023/12/19 06:15:08;;;;;;;71.35;31.25;;;;;;;;;;5087397;28;20789;-74
2023/12/19 06:17:35;;;;;;;58.00;28.30;;;;;;;-142.91;100.00;56616.03;5089730;28;20198;-73
2023/12/19 06:20:02;;;;;;;62.95;31.02;;;;;;;-142.91;100.00;56616.03;5085447;28;20233;-74
2023/12/19 06:22:28;;;;;;;67.45;31.85;;;;;;;;;;5088415;28;20229;-74
2023/12/19 06:24:58;;;;;;;78.32;32.90;;;;;;;-142.91;100.00;56616.03;5087404;28;20658;-74
2023/12/19 06:27:27;;;;;;;69.60;33.80;;;;;;;-142.91;100.00;56616.03;5084958;28;20236;-74
2023/12/19 06:29:54;;;;;;;64.82;34.30;;;;;;;24.55;100.00;56616.03;5084673;28;20197;-75
2023/12/19 06:32:21;;;;;;;70.40;34.13;;;;;;;-142.91;100.00;56616.03;5084817;28;20308;-74
2023/12/19 06:34:48;;;;;;;77.05;35.15;;;;;;;-142.91;100.00;56616.03;5082455;28;20245;-74
2023/12/19 06:37:14;;;;;;;70.40;36.58;;;;;;;-142.91;100.00;56616.03;5086008;28;20280;-76
2023/12/19 06:39:41;;;;;;;78.70;36.25;;;;;;;23.25;100.00;56616.03;5084086;28;20202;-75
2023/12/19 06:42:09;;;;;;;77.07;37.85;;;;;;;-142.91;100.00;56616.03;5083232;28;20308;-75
2023/12/19 06:44:37;;;;;;;80.22;39.63;;;;;;;-142.91;100.00;56616.03;5084764;28;20226;-75
2023/12/19 06:47:04;;;;;;;106.28;42.38;;;;;;;-142.91;100.00;56616.03;5083894;28;20316;-75
2023/12/19 06:49:31;;;;;;;93.03;43.33;;;;;;;-142.91;100.00;56616.03;5084673;28;20229;-75
2023/12/19 06:51:57;;;;;;;91.72;43.60;;;;;;;-142.91;100.00;56616.03;5084340;28;20230;-75
2023/12/19 06:54:24;;;;;;;85.53;40.13;;;;;;;-142.91;100.00;56616.03;5086485;28;20225;-76
2023/12/19 06:56:51;;;;;;;105.53;47.08;;;;;;;;;;5086583;28;20284;-75
2023/12/19 06:59:19;;;;;;;125.65;50.42;;;;;;;-142.91;100.00;56616.03;5083275;28;20282;-76
2023/12/19 07:01:46;;;;;;;113.95;47.67;;;;;;;-142.91;100.00;56616.03;5082548;28;20672;-75
2023/12/19 07:04:12;;;;;;;115.95;45.85;;;;;;;-142.91;100.00;56616.03;5080981;28;20244;-75
2023/12/19 07:06:39;;;;;;;149.63;63.22;;;;;;;-142.91;100.00;56616.03;5082600;28;20260;-74
2023/12/19 07:09:05;;;;;;;141.52;63.58;;;;;;;-142.91;100.00;56616.03;5080065;28;20288;-76
2023/12/19 07:11:32;;;;;;;148.77;61.75;;;;;;;-142.91;100.00;56616.03;5078150;28;20282;-76
2023/12/19 07:13:59;;;;;;;136.27;56.90;;;;;;;-142.91;100.00;56616.03;5085876;28;20281;-76
2023/12/19 07:16:27;;;;;;;140.85;60.65;;;;;;;-142.91;100.00;56616.03;5085051;28;20206;-75
2023/12/19 07:18:53;;;;;;;137.05;63.97;;;;;;;-142.91;100.00;56616.03;5086916;28;20221;-75
2023/12/19 07:21:20;;;;;;;116.70;50.17;;;;;;;;;;5086596;28;20233;-75
2023/12/19 07:23:49;;;;;;;80.90;42.22;;;;;;;-142.91;100.00;56616.03;5085458;28;20637;-75
2023/12/19 07:26:23;;;;;;;81.25;41.97;;;;;;;-142.91;100.00;56616.03;5087212;28;20221;-77
2023/12/19 07:28:50;;;;;;;81.43;41.83;;;;;;;;;;5086982;28;20375;-75
2023/12/19 07:31:23;;;;;;;86.70;44.63;;;;;;;;;;5086877;28;20284;-75
2023/12/19 07:33:54;;;;;;;83.07;42.83;;;;;;;23.90;0.00;145012.91;5085506;28;20288;-75
2023/12/19 07:36:21;;;;;;;78.35;39.22;;;;;;;;;;5086972;28;20685;-77
2023/12/19 07:42:17;;;;;;;65.90;32.38;;;;;;;23.25;100.00;56616.03;5078515;28;20303;-78
2023/12/19 07:48:21;;;;;;;53.58;28.27;;;;;;;-142.91;100.00;56616.03;5081708;28;20305;-77
2023/12/19 07:50:50;;;;;;;83.38;43.08;;;;;;;23.27;100.00;56616.03;5082878;28;20229;-76
2023/12/19 07:53:16;;;;;;;55.85;32.67;;;;;;;;;;5083437;28;20198;-75
2023/12/19 07:55:43;;;;;;;53.05;28.95;;;;;;;-142.91;100.00;145487.84;5085087;28;20292;-76
2023/12/19 07:58:09;;;;;;;56.00;27.65;;;;;;;;;;5081591;28;20293;-76
2023/12/19 08:00:35;;;;;;;70.90;35.17;;;;;;;;;;5080985;28;20668;-75
2023/12/19 08:03:02;;;;;;;41.88;27.15;;;;;;;;;;5084576;28;20288;-75
2023/12/19 08:05:28;;;;;;;46.05;29.30;;;;;;;;;;5083762;28;20292;-75
2023/12/19 08:07:56;;;;;;;52.05;28.65;;;;;;;;;;5086033;28;20316;-76
2023/12/19 08:10:23;;;;;;;53.55;30.60;;;;;;;;;;5086468;28;20244;-76
2023/12/19 08:12:49;;;;;;;65.43;35.60;;;;;;;;;;5083544;28;20204;-74
2023/12/19 08:15:15;;;;;;;70.53;38.25;;;;;;;;;;5085715;28;20280;-76
2023/12/19 08:17:42;;;;;;;81.55;44.00;;;;;;;-142.91;100.00;56616.03;5084866;28;20209;-76
2023/12/19 08:20:10;;;;;;;106.50;56.63;;;;;;;-142.91;100.00;56616.03;5082052;28;20285;-75
2023/12/19 08:22:37;;;;;;;122.20;62.60;;;;;;;;;;5082876;28;20209;-78
2023/12/19 08:25:05;;;;;;;142.10;68.65;;;;;;;;;;5085798;28;20233;-75
2023/12/19 08:27:35;;;;;;;154.50;62.40;;;;;;;;;;5080889;28;20218;-75
2023/12/19 08:30:01;;;;;;;137.32;61.35;;;;;;;;;;5081131;28;20615;-76
2023/12/19 08:32:29;;;;;;;155.27;62.83;;;;;;;-142.91;100.00;56616.03;5073915;28;20313;-77
2023/12/19 08:34:55;;;;;;;129.20;57.45;;;;;;;;;;5082259;28;20214;-76
2023/12/19 08:37:22;;;;;;;131.43;54.60;;;;;;;;;;5082207;28;20754;-77
2023/12/19 08:39:54;;;;;;;113.80;53.03;;;;;;;-142.91;100.00;56616.03;5079234;28;20206;-75
2023/12/19 08:42:22;;;;;;;112.82;53.92;;;;;;;;;;5083154;28;20229;-75
2023/12/19 08:44:49;;;;;;;118.07;53.95;;;;;;;;;;5084566;28;20289;-75
2023/12/19 08:47:26;;;;;;;138.43;64.65;;;;;;;-142.91;100.00;56616.03;5085459;28;20399;-79
2023/12/19 08:49:53;;;;;;;105.55;51.97;;;;;;;;;;5083382;28;20332;-78
2023/12/19 08:52:20;;;;;;;101.97;50.45;;;;;;;;;;5084589;28;20652;-76
2023/12/19 08:54:46;;;;;;;102.68;50.55;;;;;;;;;;5084370;28;20212;-76
2023/12/19 08:57:13;;;;;;;122.03;54.17;;;;;;;;;;5085322;28;20286;-79
2023/12/19 08:59:41;;;;;;;95.65;48.03;;;;;;;;;;5088644;28;20660;-77
2023/12/19 09:02:08;;;;;;;99.75;49.50;;;;;;;;;;5088356;28;20292;-77
2023/12/19 09:04:35;;;;;;;94.03;46.10;;;;;;;;;;5088944;28;20240;-76
2023/12/19 09:07:02;;;;;;;90.95;44.60;;;;;;;;;;5088274;28;20321;-77
2023/12/19 09:09:28;;;;;;;97.78;45.97;;;;;;;;;;5088258;28;20746;-76
2023/12/19 09:11:55;;;;;;;98.45;48.08;;;;;;;;;;5087620;28;20202;-76
2023/12/19 09:14:22;;;;;;;93.22;46.72;;;;;;;;;;5087037;28;20204;-76
2023/12/19 09:16:50;;;;;;;83.60;42.83;;;;;;;;;;5089160;28;20758;-76
2023/12/19 09:19:17;;;;;;;109.22;50.83;;;;;;;;;;5086823;28;20284;-77
2023/12/19 09:21:43;;;;;;;106.35;47.85;;;;;;;;;;5087859;28;20304;-75
2023/12/19 09:24:10;;;;;;;94.15;45.80;;;;;;;-142.91;100.00;56616.03;5088154;28;20594;-77
2023/12/19 09:26:38;;;;;;;87.72;42.53;;;;;;;;;;5087830;28;20650;-75
2023/12/19 09:29:06;;;;;;;97.15;43.33;;;;;;;;;;5085535;28;20222;-76
2023/12/19 09:31:32;;;;;;;86.38;42.08;;;;;;;;;;5088121;28;20223;-75
2023/12/19 09:34:02;;;;;;;80.10;41.55;;;;;;;;;;5087607;28;20221;-76
2023/12/19 09:36:28;;;;;;;91.47;42.83;;;;;;;-142.91;100.00;56616.03;5087487;28;20262;-79
2023/12/19 09:38:55;;;;;;;85.57;40.08;;;;;;;;;;5087600;28;20217;-78
2023/12/19 09:41:21;;;;;;;89.35;44.80;;;;;;;;;;5087804;28;20197;-76
2023/12/19 09:43:51;;;;;;;82.80;42.92;;;;;;;-142.91;100.00;56616.03;5087696;28;20197;-77
2023/12/19 09:46:18;;;;;;;84.18;42.20;;;;;;;-142.91;100.00;56616.03;5087859;28;20208;-76
2023/12/19 09:48:50;;;;;;;82.35;41.60;;;;;;;-142.91;100.00;56616.03;5085105;28;20248;-76
2023/12/19 09:51:22;;;;;;;83.22;41.47;;;;;;;;;;5086610;28;20229;-75
2023/12/19 09:53:53;;;;;;;85.30;43.03;;;;;;;-142.91;100.00;56616.03;5083379;28;20648;-74
2023/12/19 09:56:20;;;;;;;90.38;45.63;;;;;;;-142.91;100.00;56616.03;5119037;27;20259;-75
2023/12/19 09:58:49;;;;;;;95.38;47.90;;;;;;;-142.91;100.00;56616.03;5087613;28;20218;-76
2023/12/19 10:01:17;;;;;;;114.85;53.08;;;;;;;;;;5086240;28;20517;-75
2023/12/19 10:03:44;;;;;;;98.75;50.28;;;;;;;;;;5085581;28;20679;-75
2023/12/19 10:06:10;;;;;;;117.93;52.63;;;;;;;;;;5086075;28;20301;-75
2023/12/19 10:08:42;;;;;;;111.85;55.90;;;;;;;-142.91;100.00;56616.03;5083915;28;20301;-74
2023/12/19 10:11:09;;;;;;;111.00;52.85;;;;;;;;;;5084505;28;20262;-75
2023/12/19 10:13:37;;;;;;;111.15;50.38;;;;;;;;;;5083985;28;20913;-75
2023/12/19 10:16:06;;;;;;;112.18;53.83;;;;;;;-142.91;100.00;56616.03;5084861;28;20634;-74
2023/12/19 10:18:33;;;;;;;112.82;57.25;;;;;;;-142.91;100.00;56616.03;5084460;28;20226;-74
2023/12/19 10:21:08;;;;;;;111.72;55.88;;;;;;;;;;5082354;28;20279;-75
2023/12/19 10:23:34;;;;;;;117.60;55.55;;;;;;;;;;5077030;28;20232;-74
2023/12/19 10:26:03;;;;;;;124.32;55.58;;;;;;;;;;5081517;28;20277;-75
2023/12/19 10:28:30;;;;;;;113.47;56.08;;;;;;;;;;5083230;28;20327;-73
2023/12/19 10:31:14;;;;;;;117.35;55.38;;;;;;;;;;5081962;28;20296;-77
2023/12/19 10:33:41;;;;;;;120.78;55.10;;;;;;;;;;5079039;28;20742;-74
2023/12/19 10:36:07;;;;;;;117.10;56.65;;;;;;;;;;5082586;28;20236;-76
2023/12/19 10:38:45;;;;;;;110.32;55.53;;;;;;;-142.91;100.00;56616.03;5084240;28;20304;-74
2023/12/19 10:41:17;;;;;;;111.00;54.38;;;;;;;;;;5080750;28;20288;-76
2023/12/19 10:43:45;;;;;;;113.68;54.22;;;;;;;-142.91;100.00;56616.03;5084730;28;20360;-75
2023/12/19 10:46:13;;;;;;;111.68;55.20;;;;;;;;;;5087787;28;20471;-75
2023/12/19 10:48:40;;;;;;;115.03;55.78;;;;;;;;;;5086662;28;20328;-75
2023/12/19 10:51:09;;;;;;;113.43;55.30;;;;;;;-142.91;100.00;56616.03;5078455;28;20240;-75
2023/12/19 10:53:37;;;;;;;110.65;53.92;;;;;;;-142.91;100.00;56616.03;5082219;28;20240;-76
2023/12/19 10:56:08;;;;;;;102.18;53.45;;;;;;;-142.91;100.00;56616.03;5084909;28;20301;-75
2023/12/19 10:58:45;;;;;;;118.32;58.20;;;;;;;-142.91;100.00;56616.03;5081601;28;20202;-75
2023/12/19 11:01:13;;;;;;;111.00;55.15;;;;;;;-142.91;100.00;56616.03;5083913;28;20288;-75
2023/12/19 11:03:43;;;;;;;118.38;58.00;;;;;;;;;;5081275;28;20222;-73
2023/12/19 11:06:10;;;;;;;104.38;56.03;;;;;;;;;;5081040;28;20286;-76
2023/12/19 11:08:39;;;;;;;111.25;56.80;;;;;;;;;;5083799;28;20300;-74
2023/12/19 11:11:09;;;;;;;108.32;54.63;;;;;;;;;;5084245;28;20201;-74
2023/12/19 11:13:41;;;;;;;105.03;56.20;;;;;;;;;;5086116;28;20296;-75
2023/12/19 11:16:09;;;;;;;113.80;57.67;;;;;;;;;;5086655;28;20372;-75
2023/12/19 11:18:46;;;;;;;127.03;57.30;;;;;;;;;;5085720;28;20190;-75
2023/12/19 11:21:15;;;;;;;105.38;59.25;;;;;;;;;;5085600;28;20284;-75
2023/12/19 11:23:45;;;;;;;118.43;58.53;;;;;;;;;;5076854;28;20237;-76
2023/12/19 11:26:16;;;;;;;120.43;60.70;;;;;;;;;;5085373;28;20258;-77
2023/12/19 11:28:44;;;;;;;112.47;59.53;;;;;;;-142.91;100.00;56616.03;5085366;28;20684;-76
2023/12/19 11:31:30;;;;;;;115.28;59.60;;;;;;;-142.91;100.00;56616.03;5084643;28;20658;-76
2023/12/19 11:33:57;;;;;;;116.45;59.15;;;;;;;;;;5084815;28;20224;-75
2023/12/19 11:36:23;;;;;;;109.72;57.63;;;;;;;;;;5085909;28;20236;-74
2023/12/19 11:39:25;;;;;;;111.32;57.25;;;;;;;-142.91;100.00;56616.03;5085296;28;20989;-76
2023/12/19 11:41:52;;;;;;;101.07;57.05;;;;;;;;;;5067780;28;20586;-75
2023/12/19 11:44:35;;;;;;;106.78;52.05;;;;;;;-142.91;100.00;56616.03;5082429;28;20255;-75
2023/12/19 11:47:13;;;;;;;103.95;50.08;;;;;;;;;;5085860;28;20297;-74
2023/12/19 11:49:40;;;;;;;95.07;50.75;;;;;;;-142.91;100.00;56616.03;5085843;28;20221;-74
2023/12/19 11:52:06;;;;;;;99.50;50.30;;;;;;;-142.91;100.00;56616.03;5080973;28;20288;-74
2023/12/19 11:54:33;;;;;;;94.32;49.40;;;;;;;;;;5080995;28;20190;-74